Sweeney Granite Mountains, California Weather observations

Data are for 10 minute period ending at time listed.
 Day   Time   Solar   Ave.   Ave.  Ave.  Vector  Max.   Baro.   Total    
  of    of     Rad.   Air    Rel.  Wind   Wind   Wind  Press.  Precip.   
Year   Day            Temp.  Hum.  Speed  Dir.   Gust                    
2017   (PST)  Kw/m2    F      %     mph   deg.    mph    mb.     in.     
-------------------------------------------------------------------------
 293    0:00   0.00   65.7    26   22.1   298    33.2   864.1    0.00 
 293    0:10   0.00   64.9    28   20.8   298    32.8   864.1    0.00 
 293    0:20   0.00   65.6    24   18.5   291    30.2   864.0    0.00 
 293    0:30   0.00   65.3    27   22.7   303    34.2   864.2    0.00 
 293    0:40   0.00   64.3    30   19.6   306    31.0   864.2    0.00 
 293    0:50   0.00   65.4    27   18.3   310    24.5   864.2    0.00 
 293    1:00   0.00   64.5    30   19.4   312    26.1   864.3    0.00 
 293    1:10   0.00   63.7    32   20.1   307    26.1   864.5    0.00 
 293    1:20   0.00   62.9    33   19.7   316    29.5   864.3    0.00 
 293    1:30   0.00   62.7    34   21.9   313    28.6   864.4    0.00 
 293    1:40   0.00   62.4    35   21.3   309    27.7   864.3    0.00 
 293    1:50   0.00   62.7    34   18.7   314    26.7   864.1    0.00 
 293    2:00   0.00   63.1    33   17.0   316    25.6   863.9    0.00 
 293    2:10   0.00   63.2    32   15.5   314    23.8   863.9    0.00 
 293    2:20   0.00   63.0    33   18.3   310    26.7   863.6    0.00 
 293    2:30   0.00   62.7    34   21.6   313    32.9   863.4    0.00 
 293    2:40   0.00   63.4    31   19.3   305    27.9   863.3    0.00 
 293    2:50   0.00   64.1    29   20.2   298    33.1   863.3    0.00 
 293    3:00   0.00   64.3    29   19.4   303    33.6   863.4    0.00 
 293    3:10   0.00   63.1    33   20.0   302    32.2   863.4    0.00 
 293    3:20   0.00   62.8    35   25.8   305    36.0   863.2    0.00 
 293    3:30   0.00   62.0    37   22.4   305    31.6   863.2    0.00 
 293    3:40   0.00   62.0    38   23.2   307    33.2   863.2    0.00 
 293    3:50   0.00   61.4    39   22.1   301    32.2   863.0    0.00 
 293    4:00   0.00   61.6    39   22.7   302    39.3   863.0    0.00 
 293    4:10   0.00   61.4    40   24.3   304    33.7   862.8    0.00 
 293    4:20   0.00   61.4    41   23.5   298    36.1   862.8    0.00 
 293    4:30   0.00   61.9    39   24.4   301    34.1   862.7    0.00 
 293    4:40   0.00   61.1    43   24.9   301    37.4   862.7    0.00 
 293    4:50   0.00   61.1    43   27.4   304    38.3   862.7    0.00 
 293    5:00   0.00   61.0    42   24.4   305    36.5   862.8    0.00 
 293    5:10   0.00   60.9    42   24.2   305    39.0   862.8    0.00 
 293    5:20   0.00   59.7    46   22.9   303    33.5   863.0    0.00 
 293    5:30   0.00   59.4    46   24.4   302    36.1   863.2    0.00 
 293    5:40   0.00   59.1    46   20.9   301    32.4   863.1    0.00 
 293    5:50   0.00   58.7    47   18.7   312    32.0   863.3    0.00 
 293    6:00   0.00   58.8    44   19.8   310    30.9   863.3    0.00 
 293    6:10   0.01   59.5    40   18.4   303    30.7   863.5    0.00 
 293    6:20   0.02   60.2    36   15.7   303    26.6   863.6    0.00 
 293    6:30   0.05   61.6    31   16.1   293    30.5   863.7    0.00 
 293    6:40   0.08   62.2    31   16.9   294    31.2   863.6    0.00 
 293    6:50   0.12   62.9    29   17.2   292    32.4   863.6    0.00 
 293    7:00   0.15   63.2    29   18.4   295    30.9   863.6    0.00 
 293    7:10   0.18   63.6    27   20.4   292    33.1   863.6    0.00 
 293    7:20   0.22   64.2    23   20.5   291    32.7   863.8    0.00 
 293    7:30   0.25   65.5    21   15.9   278    35.1   863.8    0.00 
 293    7:40   0.29   66.5    18   14.8   270    30.7   864.0    0.00 
 293    7:50   0.32   66.3    18   17.9   266    32.2   864.2    0.00 
 293    8:00   0.36   65.7    20   17.9   285    35.5   864.2    0.00 
 293    8:10   0.39   64.2    26   21.5   299    37.0   864.2    0.00 
 293    8:20   0.43   64.1    27   24.2   300    39.1   864.0    0.00 
 293    8:30   0.42   64.5    27   20.0   293    33.1   864.1    0.00 
 293    8:40   0.45   65.4    24   14.9   297    24.8   864.1    0.00 
 293    8:50   0.52   67.0    20   15.5   278    32.2   864.1    0.00 
 293    9:00   0.54   66.6    20   20.7   273    40.5   864.0    0.00 
 293    9:10   0.57   67.4    18   21.8   276    34.2   864.0    0.00 
 293    9:20   0.60   67.6    18   20.1   266    35.9   864.0    0.00 
 293    9:30   0.62   68.6    16   18.3   268    37.0   864.0    0.00 
 293    9:40   0.64   68.1    19   19.3   274    39.5   864.0    0.00 
 293    9:50   0.66   69.0    18   19.3   281    31.9   864.1    0.00 
 293   10:00   0.68   68.3    21   22.4   282    33.7   864.2    0.00 
 293   10:10   0.69   66.9    24   21.5   274    40.1   864.4    0.00 
 293   10:20   0.70   66.3    24   15.5   265    36.3   864.7    0.00 
 293   10:30   0.71   67.0    23    9.4   262    23.5   864.6    0.00 
 293   10:40   0.73   68.7    20    7.7   266    17.5   864.5    0.00 
 293   10:50   0.76   69.9    16   11.2   260    23.8   864.2    0.00 
 293   11:00   0.80   69.7    14   14.6   263    31.1   864.1    0.00 
 293   11:10   0.79   69.2    13   17.6   262    29.6   864.1    0.00 
 293   11:20   0.74   68.4    16   18.3   264    31.6   864.0    0.00 
 293   11:30   0.64   68.1    15   18.8   272    30.8   863.9    0.00 
 293   11:40   0.63   68.5    17   18.1   282    28.3   864.0    0.00 
 293   11:50   0.53   65.5    24   24.6   278    41.0   864.1    0.00 
 293   12:00   0.75   64.2    30   19.1   271    31.9   864.0    0.00 
 293   12:10   0.75   65.6    27   13.2   277    26.2   863.8    0.00 
 293   12:20   0.73   65.9    24   15.2   274    28.7   863.5    0.00 
 293   12:30   0.72   66.7    23   14.2   260    25.9   863.5    0.00 
 293   12:40   0.69   66.3    25   14.0   267    29.1   863.4    0.00 
 293   12:50   0.70   65.3    28   13.3   250    28.7   863.3    0.00 
 293   13:00   0.68   65.2    30   10.7   258    24.5   863.2    0.00 
 293   13:10   0.67   65.4    29   16.9   277    34.3   863.0    0.00 
 293   13:20   0.65   66.4    27   19.4   287    34.3   862.9    0.00 
 293   13:30   0.63   66.5    28   20.4   296    31.9   862.8    0.00 
 293   13:40   0.61   65.8    28   23.6   289    33.0   862.7    0.00 
 293   13:50   0.59   65.6    27   20.9   285    36.5   862.8    0.00 
 293   14:00   0.55   66.4    25   19.3   295    29.4   862.8    0.00 
 293   14:10   0.25   64.9    26   18.0   289    28.7   862.9    0.00 
 293   14:20   0.47   64.9    26   17.1   293    32.6   863.0    0.00 
 293   14:30   0.55   65.9    23   20.1   304    28.8   862.8    0.00 
 293   14:40   0.38   65.6    23   15.8   296    27.3   863.0    0.00 
 293   14:50   0.45   65.6    24   16.9   300    26.7   863.0    0.00 
 293   15:00   0.47   65.5    23   15.2   298    27.5   863.1    0.00 
 293   15:10   0.28   64.7    23   16.1   310    27.3   863.2    0.00 
 293   15:20   0.10   63.4    24   16.6   283    30.5   862.9    0.00 
 293   15:30   0.06   63.3    25   17.7   299    26.4   862.8    0.00 
 293   15:40   0.07   63.0    24   17.7   296    30.0   862.7    0.00 
 293   15:50   0.05   62.8    25   13.8   296    24.1   862.7    0.00 
 293   16:00   0.04   62.6    25   11.3   311    20.9   862.6    0.00 
 293   16:10   0.03   62.1    26   11.0   311    21.0   862.5    0.00 
 293   16:20   0.03   61.1    27   13.0   299    24.5   862.4    0.00 
 293   16:30   0.02   60.5    28   13.8   306    27.7   862.4    0.00 
 293   16:40   0.01   60.2    29   16.4   305    30.8   862.4    0.00 
 293   16:50   0.01   59.8    31   14.9   315    33.0   862.5    0.00 
 293   17:00   0.00   59.7    31    9.8   318    25.5   862.8    0.00 
 293   17:10   0.00   59.3    31   12.4   296    33.0   862.8    0.00 
 293   17:20   0.00   58.9    31   15.6   297    33.1   862.9    0.00 
 293   17:30   0.00   58.2    32   16.4   292    31.6   862.9    0.00 
 293   17:40   0.00   58.0    32   13.8   288    27.9   863.0    0.00 
 293   17:50   0.00   57.6    32   14.5   279    30.8   863.1    0.00 
 293   18:00   0.00   56.9    35   18.7   296    34.0   863.1    0.00 
 293   18:10   0.00   56.5    36   20.5   298    42.5   863.1    0.00 
 293   18:20   0.00   56.3    36   19.2   308    36.0   863.2    0.00 
 293   18:30   0.00   56.2    37   17.6   304    36.7   863.4    0.00 
 293   18:40   0.00   56.0    37   17.1   304    38.3   863.6    0.00 
 293   18:50   0.00   55.6    38   12.7   321    31.6   863.7    0.00 
 293   19:00   0.00   55.3    36   19.1   327    33.5   863.6    0.00 
 293   19:10   0.00   55.2    36   16.0   322    29.7   863.7    0.00 
 293   19:20   0.00   55.2    34   12.6   321    24.2   863.7    0.00 
 293   19:30   0.00   55.5    32   10.3   325    39.7   863.8    0.00 
 293   19:40   0.00   55.5    31   15.1   331    30.2   863.8    0.00 
 293   19:50   0.00   55.4    30   13.8   330    33.2   864.2    0.00 
 293   20:00   0.00   55.0    31   15.2   322    35.7   864.4    0.00 
 293   20:10   0.00   54.5    32   11.8   323    34.4   864.5    0.00 
 293   20:20   0.00   53.8    34   13.6   337    25.3   864.9    0.00 
 293   20:30   0.00   53.0    37   16.4   328    25.3   865.1    0.00 
 293   20:40   0.00   52.7    38   19.7   320    27.0   865.0    0.00 
 293   20:50   0.00   52.6    38   21.4   318    30.0   865.0    0.00 
 293   21:00   0.00   52.8    38   22.6   316    30.0   865.0    0.00 
 293   21:10   0.00   52.9    38   23.8   315    29.1   864.8    0.00 
 293   21:20   0.00   52.8    38   23.6   311    31.8   864.8    0.00 
 293   21:30   0.00   53.7    36   21.8   312    28.9   864.9    0.00 
 293   21:40   0.00   54.2    36   22.5   313    29.4   865.0    0.00 
 293   21:50   0.00   54.7    35   20.2   312    26.4   865.1    0.00 
 293   22:00   0.00   56.3    33   19.7   313    24.8   865.1    0.00 
 293   22:10   0.00   55.5    34   20.0   312    25.4   865.1    0.00 
 293   22:20   0.00   55.5    36   19.0   309    23.0   865.1    0.00 
 293   22:30   0.00   55.5    36   18.6   308    24.0   865.1    0.00 
 293   22:40   0.00   56.3    36   17.4   312    22.4   865.2    0.00 
 293   22:50   0.00   58.3    34   16.4   312    22.8   865.4    0.00 
 293   23:00   0.00   58.3    34   17.0   312    22.1   865.4    0.00 

Return to Sweeney Granite Mountains graphs page.


Western Regional Climate Center,wrcc@dri.edu